1863 NOT_NAMED (1863042S15073)


IBTrACS version v04r00. Visit IBTrACS website for data access.
Please direct all questions to the IBTrACS Q and A forum

Storm track - Intensity - Wind Radii - Intensity Data - Source Data - All data

Summary Information

Storm ID 1863042S15073
Start Feb 11 06Z
End Feb 19 06Z
ATCF IDs
Track status Best track data.

Storm track plot

Map of storm track

Intensity plots

No Intensity information for this storm


Radial wind information

No radial wind information for this storm


Position and Intensity Table

BASIN ISO_TIME_________ NATURE LAT LON
degrees north degrees east
SI 1863-02-11 06:00:00 NR -14.80 72.80
SI 09:00:00 NR -14.85 72.34
SI 12:00:00 NR -14.90 71.88
SI 15:00:00 NR -14.95 71.42
SI 18:00:00 NR -15.00 70.94
SI 21:00:00 NR -15.05 70.45
SI 1863-02-12 00:00:00 NR -15.10 69.95
SI 03:00:00 NR -15.15 69.44
SI 06:00:00 NR -15.20 68.90
SI 09:00:00 NR -15.25 68.34
SI 12:00:00 NR -15.31 67.76
SI 15:00:00 NR -15.39 67.15
SI 18:00:00 NR -15.47 66.53
SI 21:00:00 NR -15.58 65.88
SI 1863-02-13 00:00:00 NR -15.72 65.21
SI 03:00:00 NR -15.89 64.52
SI 06:00:00 NR -16.10 63.80
SI 09:00:00 NR -16.30 63.03
SI 12:00:00 NR -16.54 62.24
SI 15:00:00 NR -16.81 61.42
SI 18:00:00 NR -17.12 60.59
SI 21:00:00 NR -17.47 59.77
SI 1863-02-14 00:00:00 NR -17.86 58.95
SI 03:00:00 NR -18.30 58.16
SI 06:00:00 NR -18.80 57.40
SI 09:00:00 NR -19.37 56.65
SI 12:00:00 NR -20.00 55.92
SI 15:00:00 NR -20.67 55.22
SI 18:00:00 NR -21.38 54.54
SI 21:00:00 NR -22.10 53.91
SI 1863-02-15 00:00:00 NR -22.82 53.32
SI 03:00:00 NR -23.53 52.78
SI 06:00:00 NR -24.20 52.30
SI 09:00:00 NR -24.82 51.87
SI 12:00:00 NR -25.42 51.49
SI 15:00:00 NR -26.01 51.18
SI 18:00:00 NR -26.57 50.91
SI 21:00:00 NR -27.10 50.69
SI 1863-02-16 00:00:00 NR -27.60 50.50
SI 03:00:00 NR -28.07 50.34
SI 06:00:00 NR -28.50 50.20
SI 09:00:00 NR -28.89 50.03
SI 12:00:00 NR -29.25 49.90
SI 15:00:00 NR -29.57 49.79
SI 18:00:00 NR -29.87 49.70
SI 21:00:00 NR -30.15 49.63
SI 1863-02-17 00:00:00 NR -30.40 49.58
SI 03:00:00 NR -30.65 49.54
SI 06:00:00 NR -30.90 49.50
SI 09:00:00 NR -31.17 49.44
SI 12:00:00 NR -31.44 49.40
SI 15:00:00 NR -31.70 49.36
SI 18:00:00 NR -31.95 49.33
SI 21:00:00 NR -32.20 49.31
SI 1863-02-18 00:00:00 NR -32.44 49.30
SI 03:00:00 NR -32.67 49.30
SI 06:00:00 NR -32.90 49.30
SI 09:00:00 NR -33.12 49.31
SI 12:00:00 NR -33.34 49.33
SI 15:00:00 NR -33.56 49.35
SI 18:00:00 NR -33.77 49.37
SI 21:00:00 NR -33.98 49.40
SI 1863-02-19 00:00:00 NR -34.19 49.43
SI 03:00:00 NR -34.39 49.47
SI 06:00:00 NR -34.60 49.50

Source Information

Agency Information
USA
TOKYO
CMA
HKO
NEWDELHI
REUNION WMO-Best-Tracks.txt:Line=508:xxxx863074
BOM
NADI
WELLINGTON
DS824
TD9636
TD9635
NEUMANN
MLC

All available IBTrACS Data

SEASON BASIN SUBBASIN ISO_TIME_________ NATURE LAT LON WMO AGENCY DIST2LAND LANDFALL IFLAG USA SSHS REUNION LAT REUNION LON REUNION TYPE REUNION TNUM STORM SPEED STORM DIR
Year degrees north degrees east km km 1 degrees north degrees east 1 kts degrees
1863 SI MM 1863-02-11 06:00:00 NR -14.80 72.80 reunion 1704 1664 _____O________ -1 -14.80 72.80 99 9.90 9 264
1863 SI MM 09:00:00 NR -14.85 72.34 1655 1611 _____P________ -1 -14.85 72.34 99 9 264
1863 SI MM 12:00:00 NR -14.90 71.88 1611 1562 _____P________ -1 -14.90 71.88 99 9 264
1863 SI MM 15:00:00 NR -14.95 71.42 1562 1518 _____P________ -1 -14.95 71.42 99 9 264
1863 SI MM 18:00:00 NR -15.00 70.94 1508 1469 _____P________ -1 -15.00 70.94 99 9 264
1863 SI MM 21:00:00 NR -15.05 70.45 1469 1416 _____P________ -1 -15.05 70.45 99 10 264
1863 SI MM 1863-02-12 00:00:00 NR -15.10 69.95 1416 1368 _____P________ -1 -15.10 69.95 99 10 264
1863 SI MM 03:00:00 NR -15.15 69.44 1359 1306 _____P________ -1 -15.15 69.44 99 10 264
1863 SI MM 06:00:00 NR -15.20 68.90 reunion 1306 1253 _____O________ -1 -15.20 68.90 99 9.90 11 264
1863 SI MM 09:00:00 NR -15.25 68.34 1244 1196 _____P________ -1 -15.25 68.34 99 11 264
1863 SI MM 12:00:00 NR -15.31 67.76 1196 1134 _____P________ -1 -15.31 67.76 99 12 263
1863 SI MM 15:00:00 NR -15.39 67.15 1134 1073 _____P________ -1 -15.39 67.15 99 12 262
1863 SI MM 18:00:00 NR -15.47 66.53 1064 1003 _____P________ -1 -15.47 66.53 99 12 261
1863 SI MM 21:00:00 NR -15.58 65.88 1003 933 _____P________ -1 -15.58 65.88 99 13 259
1863 SI MM 1863-02-13 00:00:00 NR -15.72 65.21 933 867 _____P________ -1 -15.72 65.21 99 14 257
1863 SI MM 03:00:00 NR -15.89 64.52 858 784 _____P________ -1 -15.89 64.52 99 14 254
1863 SI MM 06:00:00 NR -16.10 63.80 reunion 784 711 _____O________ -1 -16.10 63.80 99 9.90 15 254
1863 SI MM 09:00:00 NR -16.30 63.03 702 630 _____P________ -1 -16.30 63.03 99 16 254
1863 SI MM 12:00:00 NR -16.54 62.24 622 544 _____P________ -1 -16.54 62.24 99 16 252
1863 SI MM 15:00:00 NR -16.81 61.42 537 453 _____P________ -1 -16.81 61.42 99 17 250
1863 SI MM 18:00:00 NR -17.12 60.59 453 374 _____P________ -1 -17.12 60.59 99 17 247
1863 SI MM 21:00:00 NR -17.47 59.77 365 291 _____P________ -1 -17.47 59.77 99 17 245
1863 SI MM 1863-02-14 00:00:00 NR -17.86 58.95 281 208 _____P________ -1 -17.86 58.95 99 17 241
1863 SI MM 03:00:00 NR -18.30 58.16 208 145 _____P________ -1 -18.30 58.16 99 18 238
1863 SI MM 06:00:00 NR -18.80 57.40 reunion 145 115 _____O________ -1 -18.80 57.40 99 9.90 18 233
1863 SI MM 09:00:00 NR -19.37 56.65 114 114 _____P________ -1 -19.37 56.65 99 18 229
1863 SI MM 12:00:00 NR -20.00 55.92 113 44 _____P________ -1 -20.00 55.92 99 19 226
1863 SI MM 15:00:00 NR -20.67 55.22 35 30 _____P________ -1 -20.67 55.22 99 19 223
1863 SI MM 18:00:00 NR -21.38 54.54 79 79 _____P________ -1 -21.38 54.54 99 19 221
1863 SI MM 21:00:00 NR -22.10 53.91 170 170 _____P________ -1 -22.10 53.91 99 18 218
1863 SI MM 1863-02-15 00:00:00 NR -22.82 53.32 265 265 _____P________ -1 -22.82 53.32 99 18 216
1863 SI MM 03:00:00 NR -23.53 52.78 355 355 _____P________ -1 -23.53 52.78 99 17 214
1863 SI MM 06:00:00 NR -24.20 52.30 reunion 446 446 _____O________ -1 -24.20 52.30 99 9.90 15 213
1863 SI MM 09:00:00 NR -24.82 51.87 453 433 _____P________ -1 -24.82 51.87 99 14 211
1863 SI MM 12:00:00 NR -25.42 51.49 433 422 _____P________ -1 -25.42 51.49 99 13 208
1863 SI MM 15:00:00 NR -26.01 51.18 426 415 _____P________ -1 -26.01 51.18 99 13 205
1863 SI MM 18:00:00 NR -26.57 50.91 420 415 _____P________ -1 -26.57 50.91 99 12 202
1863 SI MM 21:00:00 NR -27.10 50.69 429 426 _____P________ -1 -27.10 50.69 99 11 200
1863 SI MM 1863-02-16 00:00:00 NR -27.60 50.50 446 445 _____P________ -1 -27.60 50.50 99 10 198
1863 SI MM 03:00:00 NR -28.07 50.34 468 468 _____P________ -1 -28.07 50.34 99 9 196
1863 SI MM 06:00:00 NR -28.50 50.20 reunion 494 494 _____O________ -1 -28.50 50.20 99 9.90 9 198
1863 SI MM 09:00:00 NR -28.89 50.03 517 517 _____P________ -1 -28.89 50.03 99 8 199
1863 SI MM 12:00:00 NR -29.25 49.90 549 549 _____P________ -1 -29.25 49.90 99 7 197
1863 SI MM 15:00:00 NR -29.57 49.79 573 573 _____P________ -1 -29.57 49.79 99 6 196
1863 SI MM 18:00:00 NR -29.87 49.70 597 597 _____P________ -1 -29.87 49.70 99 6 193
1863 SI MM 21:00:00 NR -30.15 49.63 612 612 _____P________ -1 -30.15 49.63 99 5 191
1863 SI MM 1863-02-17 00:00:00 NR -30.40 49.58 642 642 _____P________ -1 -30.40 49.58 99 5 189
1863 SI MM 03:00:00 NR -30.65 49.54 668 668 _____P________ -1 -30.65 49.54 99 5 188
1863 SI MM 06:00:00 NR -30.90 49.50 reunion 689 689 _____O________ -1 -30.90 49.50 99 9.90 5 189
1863 SI MM 09:00:00 NR -31.17 49.44 716 716 _____P________ -1 -31.17 49.44 99 5 189
1863 SI MM 12:00:00 NR -31.44 49.40 737 737 _____P________ -1 -31.44 49.40 99 5 188
1863 SI MM 15:00:00 NR -31.70 49.36 768 768 _____P________ -1 -31.70 49.36 99 5 186
1863 SI MM 18:00:00 NR -31.95 49.33 797 797 _____P________ -1 -31.95 49.33 99 5 183
1863 SI MM 21:00:00 NR -32.20 49.31 818 818 _____P________ -1 -32.20 49.31 99 5 183
1863 SI MM 1863-02-18 00:00:00 NR -32.44 49.30 839 839 _____P________ -1 -32.44 49.30 99 5 0
1863 SI MM 03:00:00 NR -32.67 49.30 871 871 _____P________ -1 -32.67 49.30 99 5 183
1863 SI MM 06:00:00 NR -32.90 49.30 reunion 893 893 _____O________ -1 -32.90 49.30 99 9.90 5 0
1863 SI MM 09:00:00 NR -33.12 49.31 914 914 _____P________ -1 -33.12 49.31 99 4 0
1863 SI MM 12:00:00 NR -33.34 49.33 934 934 _____P________ -1 -33.34 49.33 99 4 174
1863 SI MM 15:00:00 NR -33.56 49.35 965 965 _____P________ -1 -33.56 49.35 99 4 174
1863 SI MM 18:00:00 NR -33.77 49.37 989 989 _____P________ -1 -33.77 49.37 99 4 174
1863 SI MM 21:00:00 NR -33.98 49.40 1009 1009 _____P________ -1 -33.98 49.40 99 4 173
1863 SI MM 1863-02-19 00:00:00 NR -34.19 49.43 1030 1030 _____P________ -1 -34.19 49.43 99 4 172
1863 SI MM 03:00:00 NR -34.39 49.47 1054 1054 _____P________ -1 -34.39 49.47 99 4 172
1863 SI MM 06:00:00 NR -34.60 49.50 reunion 1075 _____O________ -1 -34.60 49.50 99 9.90 4 170